• PiperForum.com is a vibrant community of Piper owners and pilots. Our over 1,500+ active members use Piper Forum to swap technical knowledge, plan meetups and sell planes/parts. We host technical knowledge of general aviation topics and specific topics on J3-Cubs, Cherokees, Comanches, Pacers and more. In addition to an instant community of pilots for you, PiperForum.com is a library of technical topics, airplane builds, images, technical manuals, technical documents and more.

    Access to PiperForum.com is subscription based. Subscriptions are only $49.99/year or $6.99/month to gain access to this great community and unmatched library of Piper knowledge.

    Click Here to Become a Subscribing Member and Access PiperForum.com in Full!

Who want's to go flying?

bartmc

Well-Known Member
Joined
Apr 8, 2010
Messages
3,354
Reaction score
71
We don't see em much like this around here.

KMSO 162314Z AUTO 19017G41KT 3SM TSRA FEW035 SCT065 OVC090 18/13 A2994 RMK AO2 PK WND 21041/2306 LTG DSNT E AND SE AND NW PRESRR P0000 $
 

Latest posts

Top